sensor_id;sensor_type;location;lat;lon;timestamp;P1;durP1;ratioP1;P2;durP2;ratioP2
24826;SDS011;12910;57.690;11.974;2023-03-31T00:00:09;0.20;;;0.20;;
24826;SDS011;12910;57.690;11.974;2023-03-31T00:02:36;0.20;;;0.20;;
24826;SDS011;12910;57.690;11.974;2023-03-31T00:05:02;0.20;;;0.20;;
24826;SDS011;12910;57.690;11.974;2023-03-31T00:07:27;0.20;;;0.20;;
24826;SDS011;12910;57.690;11.974;2023-03-31T00:09:52;0.20;;;0.20;;
24826;SDS011;12910;57.690;11.974;2023-03-31T00:12:22;0.20;;;0.20;;
24826;SDS011;12910;57.690;11.974;2023-03-31T00:14:47;0.17;;;0.17;;
24826;SDS011;12910;57.690;11.974;2023-03-31T00:17:12;0.20;;;0.20;;
24826;SDS011;12910;57.690;11.974;2023-03-31T00:19:39;0.20;;;0.20;;
24826;SDS011;12910;57.690;11.974;2023-03-31T00:22:05;0.20;;;0.20;;
24826;SDS011;12910;57.690;11.974;2023-03-31T00:24:32;0.20;;;0.20;;
24826;SDS011;12910;57.690;11.974;2023-03-31T00:26:58;0.20;;;0.20;;
24826;SDS011;12910;57.690;11.974;2023-03-31T00:29:24;0.20;;;0.20;;
24826;SDS011;12910;57.690;11.974;2023-03-31T00:31:50;0.13;;;0.13;;
24826;SDS011;12910;57.690;11.974;2023-03-31T00:34:16;0.17;;;0.17;;
24826;SDS011;12910;57.690;11.974;2023-03-31T00:36:41;0.10;;;0.10;;
24826;SDS011;12910;57.690;11.974;2023-03-31T00:39:14;0.20;;;0.20;;
24826;SDS011;12910;57.690;11.974;2023-03-31T00:41:41;0.40;;;0.20;;
24826;SDS011;12910;57.690;11.974;2023-03-31T00:44:18;0.13;;;0.13;;
24826;SDS011;12910;57.690;11.974;2023-03-31T00:49:34;0.20;;;0.20;;
24826;SDS011;12910;57.690;11.974;2023-03-31T00:52:05;0.20;;;0.20;;
24826;SDS011;12910;57.690;11.974;2023-03-31T00:54:37;3.50;;;0.20;;
24826;SDS011;12910;57.690;11.974;2023-03-31T00:57:06;0.20;;;0.20;;
24826;SDS011;12910;57.690;11.974;2023-03-31T00:59:37;0.20;;;0.20;;
24826;SDS011;12910;57.690;11.974;2023-03-31T01:02:07;0.20;;;0.20;;
24826;SDS011;12910;57.690;11.974;2023-03-31T01:04:44;0.10;;;0.10;;
24826;SDS011;12910;57.690;11.974;2023-03-31T01:09:41;0.10;;;0.10;;
24826;SDS011;12910;57.690;11.974;2023-03-31T01:12:11;0.20;;;0.20;;
24826;SDS011;12910;57.690;11.974;2023-03-31T01:14:39;0.20;;;0.20;;
24826;SDS011;12910;57.690;11.974;2023-03-31T01:17:05;0.20;;;0.20;;
24826;SDS011;12910;57.690;11.974;2023-03-31T01:46:59;0.20;;;0.20;;
24826;SDS011;12910;57.690;11.974;2023-03-31T01:49:45;0.10;;;0.10;;
24826;SDS011;12910;57.690;11.974;2023-03-31T01:52:26;0.20;;;0.20;;
24826;SDS011;12910;57.690;11.974;2023-03-31T01:57:48;0.17;;;0.17;;
24826;SDS011;12910;57.690;11.974;2023-03-31T02:00:19;0.20;;;0.20;;
24826;SDS011;12910;57.690;11.974;2023-03-31T02:02:57;0.20;;;0.20;;
24826;SDS011;12910;57.690;11.974;2023-03-31T02:05:37;0.23;;;0.23;;
24826;SDS011;12910;57.690;11.974;2023-03-31T02:08:15;0.20;;;0.20;;
24826;SDS011;12910;57.690;11.974;2023-03-31T02:10:47;0.20;;;0.20;;
24826;SDS011;12910;57.690;11.974;2023-03-31T02:13:14;0.20;;;0.20;;
24826;SDS011;12910;57.690;11.974;2023-03-31T02:15:43;0.20;;;0.20;;
24826;SDS011;12910;57.690;11.974;2023-03-31T02:18:12;0.20;;;0.20;;
24826;SDS011;12910;57.690;11.974;2023-03-31T02:20:41;0.10;;;0.10;;
24826;SDS011;12910;57.690;11.974;2023-03-31T02:23:11;0.10;;;0.10;;
24826;SDS011;12910;57.690;11.974;2023-03-31T02:25:40;0.20;;;0.20;;
24826;SDS011;12910;57.690;11.974;2023-03-31T02:28:11;0.20;;;0.20;;
24826;SDS011;12910;57.690;11.974;2023-03-31T02:33:43;0.10;;;0.10;;
24826;SDS011;12910;57.690;11.974;2023-03-31T02:36:08;0.20;;;0.20;;
24826;SDS011;12910;57.690;11.974;2023-03-31T02:38:38;0.10;;;0.10;;
24826;SDS011;12910;57.690;11.974;2023-03-31T02:41:10;0.10;;;0.10;;
24826;SDS011;12910;57.690;11.974;2023-03-31T02:43:36;0.20;;;0.20;;
24826;SDS011;12910;57.690;11.974;2023-03-31T02:46:01;0.10;;;0.10;;
24826;SDS011;12910;57.690;11.974;2023-03-31T02:48:28;0.20;;;0.20;;
24826;SDS011;12910;57.690;11.974;2023-03-31T02:58:49;0.10;;;0.10;;
24826;SDS011;12910;57.690;11.974;2023-03-31T03:12:24;0.20;;;0.20;;
24826;SDS011;12910;57.690;11.974;2023-03-31T03:15:32;0.20;;;0.20;;
24826;SDS011;12910;57.690;11.974;2023-03-31T03:18:00;0.20;;;0.20;;
24826;SDS011;12910;57.690;11.974;2023-03-31T03:20:28;0.30;;;0.30;;
24826;SDS011;12910;57.690;11.974;2023-03-31T03:22:54;0.17;;;0.17;;
24826;SDS011;12910;57.690;11.974;2023-03-31T03:25:20;0.20;;;0.20;;
24826;SDS011;12910;57.690;11.974;2023-03-31T03:27:45;0.20;;;0.20;;
24826;SDS011;12910;57.690;11.974;2023-03-31T03:30:11;0.20;;;0.20;;
24826;SDS011;12910;57.690;11.974;2023-03-31T03:32:38;0.10;;;0.10;;
24826;SDS011;12910;57.690;11.974;2023-03-31T03:35:04;0.27;;;0.27;;
24826;SDS011;12910;57.690;11.974;2023-03-31T03:37:30;0.20;;;0.20;;
24826;SDS011;12910;57.690;11.974;2023-03-31T03:39:56;0.20;;;0.20;;
24826;SDS011;12910;57.690;11.974;2023-03-31T03:42:22;0.20;;;0.20;;
24826;SDS011;12910;57.690;11.974;2023-03-31T03:44:48;0.20;;;0.20;;
24826;SDS011;12910;57.690;11.974;2023-03-31T03:47:13;0.20;;;0.20;;
24826;SDS011;12910;57.690;11.974;2023-03-31T03:49:39;0.20;;;0.20;;
24826;SDS011;12910;57.690;11.974;2023-03-31T03:52:05;0.20;;;0.20;;
24826;SDS011;12910;57.690;11.974;2023-03-31T03:54:30;0.20;;;0.20;;
24826;SDS011;12910;57.690;11.974;2023-03-31T03:56:56;0.20;;;0.20;;
24826;SDS011;12910;57.690;11.974;2023-03-31T03:59:21;0.20;;;0.20;;
24826;SDS011;12910;57.690;11.974;2023-03-31T04:01:48;0.17;;;0.17;;
24826;SDS011;12910;57.690;11.974;2023-03-31T04:04:14;0.40;;;0.40;;
24826;SDS011;12910;57.690;11.974;2023-03-31T04:06:39;0.20;;;0.20;;
24826;SDS011;12910;57.690;11.974;2023-03-31T04:09:05;0.20;;;0.20;;
24826;SDS011;12910;57.690;11.974;2023-03-31T04:11:30;0.20;;;0.20;;
24826;SDS011;12910;57.690;11.974;2023-03-31T04:13:56;0.20;;;0.20;;
24826;SDS011;12910;57.690;11.974;2023-03-31T04:16:21;0.13;;;0.13;;
24826;SDS011;12910;57.690;11.974;2023-03-31T04:18:49;0.10;;;0.10;;
24826;SDS011;12910;57.690;11.974;2023-03-31T04:21:20;0.30;;;0.20;;
24826;SDS011;12910;57.690;11.974;2023-03-31T04:23:47;0.30;;;0.30;;
24826;SDS011;12910;57.690;11.974;2023-03-31T04:26:15;0.40;;;0.20;;
24826;SDS011;12910;57.690;11.974;2023-03-31T04:28:42;0.20;;;0.20;;
24826;SDS011;12910;57.690;11.974;2023-03-31T04:31:11;0.20;;;0.20;;
24826;SDS011;12910;57.690;11.974;2023-03-31T04:33:50;0.20;;;0.20;;
24826;SDS011;12910;57.690;11.974;2023-03-31T04:36:16;0.20;;;0.20;;
24826;SDS011;12910;57.690;11.974;2023-03-31T04:38:44;0.20;;;0.20;;
24826;SDS011;12910;57.690;11.974;2023-03-31T04:41:11;0.20;;;0.20;;
24826;SDS011;12910;57.690;11.974;2023-03-31T04:43:40;0.20;;;0.20;;
24826;SDS011;12910;57.690;11.974;2023-03-31T04:46:06;0.20;;;0.20;;
24826;SDS011;12910;57.690;11.974;2023-03-31T04:48:32;0.10;;;0.10;;
24826;SDS011;12910;57.690;11.974;2023-03-31T04:50:57;0.50;;;0.30;;
24826;SDS011;12910;57.690;11.974;2023-03-31T04:53:22;0.20;;;0.20;;
24826;SDS011;12910;57.690;11.974;2023-03-31T04:55:48;0.20;;;0.20;;
24826;SDS011;12910;57.690;11.974;2023-03-31T04:58:14;0.23;;;0.23;;
24826;SDS011;12910;57.690;11.974;2023-03-31T05:00:40;0.20;;;0.20;;
24826;SDS011;12910;57.690;11.974;2023-03-31T05:03:05;3.03;;;0.30;;
24826;SDS011;12910;57.690;11.974;2023-03-31T05:05:31;0.20;;;0.20;;
24826;SDS011;12910;57.690;11.974;2023-03-31T05:07:57;0.20;;;0.20;;
24826;SDS011;12910;57.690;11.974;2023-03-31T05:10:22;0.30;;;0.30;;
24826;SDS011;12910;57.690;11.974;2023-03-31T05:12:48;0.20;;;0.20;;
24826;SDS011;12910;57.690;11.974;2023-03-31T05:15:13;0.20;;;0.20;;
24826;SDS011;12910;57.690;11.974;2023-03-31T05:17:38;0.27;;;0.20;;
24826;SDS011;12910;57.690;11.974;2023-03-31T05:20:04;0.30;;;0.30;;
24826;SDS011;12910;57.690;11.974;2023-03-31T05:22:33;0.20;;;0.20;;
24826;SDS011;12910;57.690;11.974;2023-03-31T05:24:59;0.20;;;0.20;;
24826;SDS011;12910;57.690;11.974;2023-03-31T05:27:25;0.20;;;0.20;;
24826;SDS011;12910;57.690;11.974;2023-03-31T05:29:50;0.27;;;0.23;;
24826;SDS011;12910;57.690;11.974;2023-03-31T05:32:15;0.20;;;0.20;;
24826;SDS011;12910;57.690;11.974;2023-03-31T05:34:41;0.47;;;0.30;;
24826;SDS011;12910;57.690;11.974;2023-03-31T05:37:07;0.17;;;0.17;;
24826;SDS011;12910;57.690;11.974;2023-03-31T05:39:32;0.20;;;0.20;;
24826;SDS011;12910;57.690;11.974;2023-03-31T05:41:58;1.90;;;0.17;;
24826;SDS011;12910;57.690;11.974;2023-03-31T05:44:24;3.80;;;0.30;;
24826;SDS011;12910;57.690;11.974;2023-03-31T05:46:51;0.20;;;0.20;;
24826;SDS011;12910;57.690;11.974;2023-03-31T05:49:17;0.20;;;0.20;;
24826;SDS011;12910;57.690;11.974;2023-03-31T05:51:42;0.40;;;0.30;;
24826;SDS011;12910;57.690;11.974;2023-03-31T05:54:08;0.30;;;0.30;;
24826;SDS011;12910;57.690;11.974;2023-03-31T05:56:33;0.20;;;0.20;;
24826;SDS011;12910;57.690;11.974;2023-03-31T05:58:59;0.20;;;0.20;;
24826;SDS011;12910;57.690;11.974;2023-03-31T06:01:25;0.20;;;0.20;;
24826;SDS011;12910;57.690;11.974;2023-03-31T06:03:51;0.47;;;0.20;;
24826;SDS011;12910;57.690;11.974;2023-03-31T06:06:16;0.20;;;0.20;;
24826;SDS011;12910;57.690;11.974;2023-03-31T06:08:42;0.20;;;0.20;;
24826;SDS011;12910;57.690;11.974;2023-03-31T06:11:10;0.17;;;0.17;;
24826;SDS011;12910;57.690;11.974;2023-03-31T06:13:37;2.83;;;0.20;;
24826;SDS011;12910;57.690;11.974;2023-03-31T06:16:04;0.20;;;0.20;;
24826;SDS011;12910;57.690;11.974;2023-03-31T06:18:30;0.20;;;0.20;;
24826;SDS011;12910;57.690;11.974;2023-03-31T06:20:57;0.20;;;0.20;;
24826;SDS011;12910;57.690;11.974;2023-03-31T06:23:24;0.30;;;0.20;;
24826;SDS011;12910;57.690;11.974;2023-03-31T06:25:50;0.50;;;0.47;;
24826;SDS011;12910;57.690;11.974;2023-03-31T06:28:16;1.00;;;0.20;;
24826;SDS011;12910;57.690;11.974;2023-03-31T06:30:41;0.30;;;0.30;;
24826;SDS011;12910;57.690;11.974;2023-03-31T06:33:07;0.20;;;0.20;;
24826;SDS011;12910;57.690;11.974;2023-03-31T06:35:32;0.20;;;0.20;;
24826;SDS011;12910;57.690;11.974;2023-03-31T06:38:01;0.30;;;0.30;;
24826;SDS011;12910;57.690;11.974;2023-03-31T06:40:26;0.20;;;0.20;;
24826;SDS011;12910;57.690;11.974;2023-03-31T06:42:52;0.30;;;0.20;;
24826;SDS011;12910;57.690;11.974;2023-03-31T06:45:17;0.20;;;0.20;;
24826;SDS011;12910;57.690;11.974;2023-03-31T06:47:43;0.20;;;0.20;;
24826;SDS011;12910;57.690;11.974;2023-03-31T06:50:08;0.20;;;0.20;;
24826;SDS011;12910;57.690;11.974;2023-03-31T06:52:34;0.20;;;0.20;;
24826;SDS011;12910;57.690;11.974;2023-03-31T06:55:00;0.13;;;0.13;;
24826;SDS011;12910;57.690;11.974;2023-03-31T06:57:27;0.20;;;0.20;;
24826;SDS011;12910;57.690;11.974;2023-03-31T06:59:53;0.20;;;0.20;;
24826;SDS011;12910;57.690;11.974;2023-03-31T07:02:18;0.30;;;0.30;;
24826;SDS011;12910;57.690;11.974;2023-03-31T07:04:44;0.20;;;0.20;;
24826;SDS011;12910;57.690;11.974;2023-03-31T07:07:09;0.87;;;0.30;;
24826;SDS011;12910;57.690;11.974;2023-03-31T07:09:35;0.30;;;0.30;;
24826;SDS011;12910;57.690;11.974;2023-03-31T07:12:00;0.20;;;0.17;;
24826;SDS011;12910;57.690;11.974;2023-03-31T07:14:29;0.20;;;0.20;;
24826;SDS011;12910;57.690;11.974;2023-03-31T07:16:57;0.20;;;0.20;;
24826;SDS011;12910;57.690;11.974;2023-03-31T07:19:23;0.10;;;0.10;;
24826;SDS011;12910;57.690;11.974;2023-03-31T07:21:49;0.20;;;0.20;;
24826;SDS011;12910;57.690;11.974;2023-03-31T07:24:15;0.30;;;0.27;;
24826;SDS011;12910;57.690;11.974;2023-03-31T07:26:41;0.30;;;0.30;;
24826;SDS011;12910;57.690;11.974;2023-03-31T07:29:06;0.30;;;0.30;;
24826;SDS011;12910;57.690;11.974;2023-03-31T07:31:32;0.30;;;0.30;;
24826;SDS011;12910;57.690;11.974;2023-03-31T07:33:57;0.20;;;0.20;;
24826;SDS011;12910;57.690;11.974;2023-03-31T07:36:22;0.20;;;0.20;;
24826;SDS011;12910;57.690;11.974;2023-03-31T07:38:48;0.23;;;0.23;;
24826;SDS011;12910;57.690;11.974;2023-03-31T07:41:15;0.20;;;0.20;;
24826;SDS011;12910;57.690;11.974;2023-03-31T07:43:42;0.30;;;0.30;;
24826;SDS011;12910;57.690;11.974;2023-03-31T07:46:15;0.33;;;0.20;;
24826;SDS011;12910;57.690;11.974;2023-03-31T07:48:46;0.67;;;0.30;;
24826;SDS011;12910;57.690;11.974;2023-03-31T07:51:13;0.30;;;0.30;;
24826;SDS011;12910;57.690;11.974;2023-03-31T07:53:40;0.20;;;0.20;;
24826;SDS011;12910;57.690;11.974;2023-03-31T07:56:05;0.30;;;0.30;;
24826;SDS011;12910;57.690;11.974;2023-03-31T07:58:30;0.20;;;0.20;;
24826;SDS011;12910;57.690;11.974;2023-03-31T08:00:56;0.20;;;0.20;;
24826;SDS011;12910;57.690;11.974;2023-03-31T08:03:22;0.20;;;0.20;;
24826;SDS011;12910;57.690;11.974;2023-03-31T08:05:50;0.27;;;0.27;;
24826;SDS011;12910;57.690;11.974;2023-03-31T08:08:15;0.23;;;0.20;;
24826;SDS011;12910;57.690;11.974;2023-03-31T08:10:41;0.30;;;0.30;;
24826;SDS011;12910;57.690;11.974;2023-03-31T08:13:06;0.30;;;0.30;;
24826;SDS011;12910;57.690;11.974;2023-03-31T08:15:32;0.20;;;0.20;;
24826;SDS011;12910;57.690;11.974;2023-03-31T08:17:57;0.20;;;0.20;;
24826;SDS011;12910;57.690;11.974;2023-03-31T08:20:23;0.20;;;0.20;;
24826;SDS011;12910;57.690;11.974;2023-03-31T08:22:49;0.30;;;0.27;;
24826;SDS011;12910;57.690;11.974;2023-03-31T08:25:14;0.67;;;0.40;;
24826;SDS011;12910;57.690;11.974;2023-03-31T08:27:40;0.30;;;0.30;;
24826;SDS011;12910;57.690;11.974;2023-03-31T08:30:07;0.20;;;0.20;;
24826;SDS011;12910;57.690;11.974;2023-03-31T08:32:35;0.23;;;0.23;;
24826;SDS011;12910;57.690;11.974;2023-03-31T08:35:02;0.17;;;0.17;;
24826;SDS011;12910;57.690;11.974;2023-03-31T08:37:28;0.93;;;0.30;;
24826;SDS011;12910;57.690;11.974;2023-03-31T08:39:54;0.20;;;0.20;;
24826;SDS011;12910;57.690;11.974;2023-03-31T08:42:36;0.20;;;0.20;;
24826;SDS011;12910;57.690;11.974;2023-03-31T08:47:31;0.20;;;0.20;;
24826;SDS011;12910;57.690;11.974;2023-03-31T08:50:10;0.20;;;0.20;;
24826;SDS011;12910;57.690;11.974;2023-03-31T08:52:41;0.20;;;0.20;;
24826;SDS011;12910;57.690;11.974;2023-03-31T08:55:21;0.30;;;0.30;;
24826;SDS011;12910;57.690;11.974;2023-03-31T09:06:58;0.70;;;0.30;;
24826;SDS011;12910;57.690;11.974;2023-03-31T09:09:35;5.83;;;0.30;;
24826;SDS011;12910;57.690;11.974;2023-03-31T09:12:15;0.30;;;0.30;;
24826;SDS011;12910;57.690;11.974;2023-03-31T09:15:03;0.43;;;0.40;;
24826;SDS011;12910;57.690;11.974;2023-03-31T09:17:39;0.30;;;0.30;;
24826;SDS011;12910;57.690;11.974;2023-03-31T09:20:22;0.20;;;0.20;;
24826;SDS011;12910;57.690;11.974;2023-03-31T09:22:54;0.30;;;0.30;;
24826;SDS011;12910;57.690;11.974;2023-03-31T09:25:30;0.43;;;0.43;;
24826;SDS011;12910;57.690;11.974;2023-03-31T09:28:00;0.30;;;0.30;;
24826;SDS011;12910;57.690;11.974;2023-03-31T09:30:29;0.30;;;0.30;;
24826;SDS011;12910;57.690;11.974;2023-03-31T09:33:44;0.30;;;0.30;;
24826;SDS011;12910;57.690;11.974;2023-03-31T09:35:57;0.40;;;0.40;;
24826;SDS011;12910;57.690;11.974;2023-03-31T09:38:32;0.60;;;0.57;;
24826;SDS011;12910;57.690;11.974;2023-03-31T09:41:01;0.30;;;0.30;;
24826;SDS011;12910;57.690;11.974;2023-03-31T09:43:28;0.30;;;0.30;;
24826;SDS011;12910;57.690;11.974;2023-03-31T09:45:56;0.70;;;0.70;;
24826;SDS011;12910;57.690;11.974;2023-03-31T09:48:28;0.40;;;0.40;;
24826;SDS011;12910;57.690;11.974;2023-03-31T09:51:05;0.20;;;0.20;;
24826;SDS011;12910;57.690;11.974;2023-03-31T09:53:39;0.40;;;0.40;;
24826;SDS011;12910;57.690;11.974;2023-03-31T09:57:12;0.37;;;0.37;;
24826;SDS011;12910;57.690;11.974;2023-03-31T09:59:16;0.40;;;0.40;;
24826;SDS011;12910;57.690;11.974;2023-03-31T10:01:44;0.60;;;0.60;;
24826;SDS011;12910;57.690;11.974;2023-03-31T10:04:23;0.30;;;0.30;;
24826;SDS011;12910;57.690;11.974;2023-03-31T10:06:59;0.33;;;0.33;;
24826;SDS011;12910;57.690;11.974;2023-03-31T10:09:29;0.50;;;0.50;;
24826;SDS011;12910;57.690;11.974;2023-03-31T10:12:03;0.50;;;0.50;;
24826;SDS011;12910;57.690;11.974;2023-03-31T10:14:34;0.30;;;0.30;;
24826;SDS011;12910;57.690;11.974;2023-03-31T10:17:04;1.80;;;0.40;;
24826;SDS011;12910;57.690;11.974;2023-03-31T10:19:34;0.40;;;0.40;;
24826;SDS011;12910;57.690;11.974;2023-03-31T10:22:05;0.60;;;0.50;;
24826;SDS011;12910;57.690;11.974;2023-03-31T10:24:41;0.50;;;0.50;;
24826;SDS011;12910;57.690;11.974;2023-03-31T10:27:28;0.50;;;0.50;;
24826;SDS011;12910;57.690;11.974;2023-03-31T10:29:56;0.43;;;0.43;;
24826;SDS011;12910;57.690;11.974;2023-03-31T10:32:24;0.30;;;0.30;;
24826;SDS011;12910;57.690;11.974;2023-03-31T10:34:53;0.60;;;0.60;;
24826;SDS011;12910;57.690;11.974;2023-03-31T10:37:21;0.40;;;0.40;;
24826;SDS011;12910;57.690;11.974;2023-03-31T10:39:55;0.40;;;0.40;;
24826;SDS011;12910;57.690;11.974;2023-03-31T10:42:25;0.40;;;0.40;;
24826;SDS011;12910;57.690;11.974;2023-03-31T10:45:23;0.50;;;0.50;;
24826;SDS011;12910;57.690;11.974;2023-03-31T10:47:40;2.93;;;0.60;;
24826;SDS011;12910;57.690;11.974;2023-03-31T10:50:12;0.40;;;0.40;;
24826;SDS011;12910;57.690;11.974;2023-03-31T10:52:42;0.40;;;0.40;;
24826;SDS011;12910;57.690;11.974;2023-03-31T10:55:11;0.40;;;0.40;;
24826;SDS011;12910;57.690;11.974;2023-03-31T10:57:57;0.43;;;0.43;;
24826;SDS011;12910;57.690;11.974;2023-03-31T11:05:51;0.60;;;0.60;;
24826;SDS011;12910;57.690;11.974;2023-03-31T11:11:00;0.37;;;0.37;;
24826;SDS011;12910;57.690;11.974;2023-03-31T11:21:56;0.53;;;0.53;;
24826;SDS011;12910;57.690;11.974;2023-03-31T11:24:37;0.60;;;0.40;;
24826;SDS011;12910;57.690;11.974;2023-03-31T11:29:53;0.47;;;0.47;;
24826;SDS011;12910;57.690;11.974;2023-03-31T11:35:19;0.40;;;0.40;;
24826;SDS011;12910;57.690;11.974;2023-03-31T11:43:36;0.60;;;0.60;;
24826;SDS011;12910;57.690;11.974;2023-03-31T11:46:24;1.00;;;0.60;;
24826;SDS011;12910;57.690;11.974;2023-03-31T11:49:02;0.40;;;0.40;;
24826;SDS011;12910;57.690;11.974;2023-03-31T11:54:19;0.57;;;0.57;;
24826;SDS011;12910;57.690;11.974;2023-03-31T11:56:52;1.70;;;0.53;;
24826;SDS011;12910;57.690;11.974;2023-03-31T11:59:20;0.50;;;0.50;;
24826;SDS011;12910;57.690;11.974;2023-03-31T12:02:14;0.63;;;0.63;;
24826;SDS011;12910;57.690;11.974;2023-03-31T12:04:49;0.67;;;0.40;;
24826;SDS011;12910;57.690;11.974;2023-03-31T12:07:22;0.50;;;0.50;;
24826;SDS011;12910;57.690;11.974;2023-03-31T12:12:41;0.40;;;0.40;;
24826;SDS011;12910;57.690;11.974;2023-03-31T12:15:32;0.30;;;0.30;;
24826;SDS011;12910;57.690;11.974;2023-03-31T12:18:14;0.50;;;0.50;;
24826;SDS011;12910;57.690;11.974;2023-03-31T12:20:47;0.50;;;0.50;;
24826;SDS011;12910;57.690;11.974;2023-03-31T12:23:17;0.50;;;0.50;;
24826;SDS011;12910;57.690;11.974;2023-03-31T12:25:51;0.83;;;0.70;;
24826;SDS011;12910;57.690;11.974;2023-03-31T12:28:23;0.50;;;0.50;;
24826;SDS011;12910;57.690;11.974;2023-03-31T12:30:51;0.40;;;0.40;;
24826;SDS011;12910;57.690;11.974;2023-03-31T12:33:24;0.53;;;0.53;;
24826;SDS011;12910;57.690;11.974;2023-03-31T12:39:15;0.60;;;0.50;;
24826;SDS011;12910;57.690;11.974;2023-03-31T12:56:00;0.80;;;0.80;;
24826;SDS011;12910;57.690;11.974;2023-03-31T13:01:06;0.60;;;0.60;;
24826;SDS011;12910;57.690;11.974;2023-03-31T13:09:00;0.50;;;0.50;;
24826;SDS011;12910;57.690;11.974;2023-03-31T13:11:49;0.57;;;0.57;;
24826;SDS011;12910;57.690;11.974;2023-03-31T13:14:21;0.50;;;0.50;;
24826;SDS011;12910;57.690;11.974;2023-03-31T13:16:48;0.57;;;0.57;;
24826;SDS011;12910;57.690;11.974;2023-03-31T13:19:31;0.60;;;0.60;;
24826;SDS011;12910;57.690;11.974;2023-03-31T13:21:59;0.73;;;0.73;;
24826;SDS011;12910;57.690;11.974;2023-03-31T13:24:27;0.70;;;0.57;;
24826;SDS011;12910;57.690;11.974;2023-03-31T13:26:55;0.67;;;0.67;;
24826;SDS011;12910;57.690;11.974;2023-03-31T13:29:24;0.63;;;0.63;;
24826;SDS011;12910;57.690;11.974;2023-03-31T13:32:04;0.70;;;0.60;;
24826;SDS011;12910;57.690;11.974;2023-03-31T13:34:39;0.97;;;0.80;;
24826;SDS011;12910;57.690;11.974;2023-03-31T13:37:11;0.63;;;0.63;;
24826;SDS011;12910;57.690;11.974;2023-03-31T13:40:27;1.33;;;1.10;;
24826;SDS011;12910;57.690;11.974;2023-03-31T13:45:49;0.80;;;0.80;;
24826;SDS011;12910;57.690;11.974;2023-03-31T13:57:09;0.50;;;0.50;;
24826;SDS011;12910;57.690;11.974;2023-03-31T14:05:54;0.60;;;0.60;;
24826;SDS011;12910;57.690;11.974;2023-03-31T14:11:17;0.60;;;0.60;;
24826;SDS011;12910;57.690;11.974;2023-03-31T14:16:39;0.60;;;0.60;;
24826;SDS011;12910;57.690;11.974;2023-03-31T14:24:46;0.87;;;0.87;;
24826;SDS011;12910;57.690;11.974;2023-03-31T14:27:41;0.50;;;0.50;;
24826;SDS011;12910;57.690;11.974;2023-03-31T14:38:18;2.30;;;0.90;;
24826;SDS011;12910;57.690;11.974;2023-03-31T14:40:46;0.70;;;0.70;;
24826;SDS011;12910;57.690;11.974;2023-03-31T14:43:21;0.80;;;0.80;;
24826;SDS011;12910;57.690;11.974;2023-03-31T14:45:59;0.67;;;0.67;;
24826;SDS011;12910;57.690;11.974;2023-03-31T14:48:27;0.63;;;0.63;;
24826;SDS011;12910;57.690;11.974;2023-03-31T14:50:59;0.70;;;0.70;;
24826;SDS011;12910;57.690;11.974;2023-03-31T14:53:26;0.70;;;0.70;;
24826;SDS011;12910;57.690;11.974;2023-03-31T14:56:15;1.17;;;1.07;;
24826;SDS011;12910;57.690;11.974;2023-03-31T14:58:48;1.17;;;0.77;;
24826;SDS011;12910;57.690;11.974;2023-03-31T15:01:17;0.80;;;0.80;;
24826;SDS011;12910;57.690;11.974;2023-03-31T15:03:47;1.23;;;0.80;;
24826;SDS011;12910;57.690;11.974;2023-03-31T15:06:14;0.90;;;0.90;;
24826;SDS011;12910;57.690;11.974;2023-03-31T15:08:40;0.60;;;0.60;;
24826;SDS011;12910;57.690;11.974;2023-03-31T15:11:12;0.70;;;0.70;;
24826;SDS011;12910;57.690;11.974;2023-03-31T15:13:44;0.70;;;0.70;;
24826;SDS011;12910;57.690;11.974;2023-03-31T15:16:29;0.77;;;0.77;;
24826;SDS011;12910;57.690;11.974;2023-03-31T15:18:55;0.70;;;0.70;;
24826;SDS011;12910;57.690;11.974;2023-03-31T15:21:23;0.70;;;0.70;;
24826;SDS011;12910;57.690;11.974;2023-03-31T15:23:58;0.67;;;0.67;;
24826;SDS011;12910;57.690;11.974;2023-03-31T15:26:27;0.80;;;0.80;;
24826;SDS011;12910;57.690;11.974;2023-03-31T15:28:58;0.83;;;0.83;;
24826;SDS011;12910;57.690;11.974;2023-03-31T15:31:29;1.63;;;1.53;;
24826;SDS011;12910;57.690;11.974;2023-03-31T15:33:56;1.20;;;1.10;;
24826;SDS011;12910;57.690;11.974;2023-03-31T15:36:21;0.77;;;0.70;;
24826;SDS011;12910;57.690;11.974;2023-03-31T15:38:52;1.20;;;1.20;;
24826;SDS011;12910;57.690;11.974;2023-03-31T15:41:20;0.80;;;0.80;;
24826;SDS011;12910;57.690;11.974;2023-03-31T15:49:02;0.80;;;0.80;;
24826;SDS011;12910;57.690;11.974;2023-03-31T15:51:35;1.00;;;1.00;;
24826;SDS011;12910;57.690;11.974;2023-03-31T15:54:01;0.70;;;0.70;;
24826;SDS011;12910;57.690;11.974;2023-03-31T15:59:00;0.97;;;0.90;;
24826;SDS011;12910;57.690;11.974;2023-03-31T16:01:33;0.60;;;0.60;;
24826;SDS011;12910;57.690;11.974;2023-03-31T16:04:05;1.80;;;1.10;;
24826;SDS011;12910;57.690;11.974;2023-03-31T16:06:38;0.77;;;0.77;;
24826;SDS011;12910;57.690;11.974;2023-03-31T16:09:22;0.60;;;0.60;;
24826;SDS011;12910;57.690;11.974;2023-03-31T16:11:55;0.97;;;0.80;;
24826;SDS011;12910;57.690;11.974;2023-03-31T16:14:31;0.87;;;0.87;;
24826;SDS011;12910;57.690;11.974;2023-03-31T16:17:01;0.77;;;0.77;;
24826;SDS011;12910;57.690;11.974;2023-03-31T16:19:32;0.80;;;0.80;;
24826;SDS011;12910;57.690;11.974;2023-03-31T16:22:05;0.70;;;0.70;;
24826;SDS011;12910;57.690;11.974;2023-03-31T16:24:31;1.70;;;0.80;;
24826;SDS011;12910;57.690;11.974;2023-03-31T16:27:00;0.90;;;0.90;;
24826;SDS011;12910;57.690;11.974;2023-03-31T16:29:30;0.97;;;0.90;;
24826;SDS011;12910;57.690;11.974;2023-03-31T16:34:52;0.80;;;0.80;;
24826;SDS011;12910;57.690;11.974;2023-03-31T16:37:22;0.90;;;0.80;;
24826;SDS011;12910;57.690;11.974;2023-03-31T16:39:48;3.63;;;1.60;;
24826;SDS011;12910;57.690;11.974;2023-03-31T16:42:14;0.90;;;0.90;;
24826;SDS011;12910;57.690;11.974;2023-03-31T16:44:40;0.70;;;0.70;;
24826;SDS011;12910;57.690;11.974;2023-03-31T16:47:05;0.80;;;0.80;;
24826;SDS011;12910;57.690;11.974;2023-03-31T16:49:31;0.80;;;0.80;;
24826;SDS011;12910;57.690;11.974;2023-03-31T16:51:56;0.70;;;0.70;;
24826;SDS011;12910;57.690;11.974;2023-03-31T16:54:22;0.93;;;0.93;;
24826;SDS011;12910;57.690;11.974;2023-03-31T16:56:47;0.83;;;0.83;;
24826;SDS011;12910;57.690;11.974;2023-03-31T16:59:13;1.10;;;1.00;;
24826;SDS011;12910;57.690;11.974;2023-03-31T17:01:38;0.80;;;0.80;;
24826;SDS011;12910;57.690;11.974;2023-03-31T17:04:03;0.90;;;0.90;;
24826;SDS011;12910;57.690;11.974;2023-03-31T17:06:29;0.90;;;0.90;;
24826;SDS011;12910;57.690;11.974;2023-03-31T17:08:54;0.87;;;0.87;;
24826;SDS011;12910;57.690;11.974;2023-03-31T17:11:20;0.73;;;0.73;;
24826;SDS011;12910;57.690;11.974;2023-03-31T17:13:46;0.80;;;0.80;;
24826;SDS011;12910;57.690;11.974;2023-03-31T17:16:14;0.87;;;0.87;;
24826;SDS011;12910;57.690;11.974;2023-03-31T17:18:41;0.97;;;0.97;;
24826;SDS011;12910;57.690;11.974;2023-03-31T17:21:08;0.93;;;0.93;;
24826;SDS011;12910;57.690;11.974;2023-03-31T17:23:36;1.10;;;1.10;;
24826;SDS011;12910;57.690;11.974;2023-03-31T17:26:03;0.70;;;0.70;;
24826;SDS011;12910;57.690;11.974;2023-03-31T17:28:30;0.60;;;0.60;;
24826;SDS011;12910;57.690;11.974;2023-03-31T17:30:56;0.80;;;0.80;;
24826;SDS011;12910;57.690;11.974;2023-03-31T17:33:21;0.97;;;0.97;;
24826;SDS011;12910;57.690;11.974;2023-03-31T17:35:47;0.90;;;0.90;;
24826;SDS011;12910;57.690;11.974;2023-03-31T17:38:13;1.20;;;1.10;;
24826;SDS011;12910;57.690;11.974;2023-03-31T17:40:38;0.83;;;0.83;;
24826;SDS011;12910;57.690;11.974;2023-03-31T17:43:05;0.80;;;0.80;;